Time;durP1;ratioP1;P1;durP2;ratioP2;P2;SDS_P1;SDS_P2;PMS_P1;PMS_P2;Temp;Humidity;BMP_temperature;BMP_pressure;BME280_temperature;BME280_humidity;BME280_pressure;Samples;Min_cycle;Max_cycle;Signal;HPM_P1;HPM_P2
2022/12/08 08:54:02;;;;;;;11.83;5.70;;;4.10;99.90;;;;;;4890820;29;20230;-79
2022/12/08 08:56:29;;;;;;;17.30;6.23;;;4.20;99.90;;;;;;4889265;29;20228;-79
2022/12/08 08:58:56;;;;;;;13.60;6.07;;;4.30;99.90;;;;;;4890210;29;20235;-79
2022/12/08 09:01:25;;;;;;;13.27;5.30;;;4.30;99.90;;;;;;4882098;29;20293;-79
2022/12/08 09:03:52;;;;;;;12.30;5.77;;;4.10;99.90;;;;;;4881223;29;20210;-78
2022/12/08 09:06:19;;;;;;;13.50;6.03;;;4.00;99.90;;;;;;4882188;29;20303;-78
2022/12/08 09:08:47;;;;;;;11.97;6.10;;;4.00;99.90;;;;;;4880873;29;20231;-78
2022/12/08 09:11:17;;;;;;;16.67;5.30;;;3.90;99.90;;;;;;4881831;29;20247;-75
2022/12/08 09:13:44;;;;;;;14.73;6.10;;;3.80;99.90;;;;;;4881617;29;20225;-73
2022/12/08 09:16:11;;;;;;;15.17;6.23;;;4.00;99.90;;;;;;4881723;29;20228;-79
2022/12/08 09:18:38;;;;;;;13.60;5.87;;;4.00;99.90;;;;;;4880663;29;20235;-79
2022/12/08 09:21:07;;;;;;;20.10;6.30;;;4.00;99.90;;;;;;4881764;29;20215;-74
2022/12/08 09:23:33;;;;;;;17.33;7.27;;;4.10;99.90;;;;;;4881457;29;20215;-78
2022/12/08 09:26:01;;;;;;;13.17;5.93;;;4.20;99.90;;;;;;4881488;29;20211;-79
2022/12/08 09:28:29;;;;;;;13.93;6.27;;;4.10;99.90;;;;;;4881256;29;20710;-77
2022/12/08 09:30:56;;;;;;;17.70;6.17;;;4.20;99.90;;;;;;4881932;29;20246;-76
2022/12/08 09:33:22;;;;;;;14.30;5.60;;;4.20;99.90;;;;;;4881699;29;20671;-76
2022/12/08 09:35:49;;;;;;;16.73;5.40;;;4.20;99.90;;;;;;4882769;29;20214;-77
2022/12/08 09:38:16;;;;;;;14.70;6.43;;;4.10;99.90;;;;;;4881380;29;20238;-77
2022/12/08 09:40:49;;;;;;;9.90;5.80;;;4.10;99.90;;;;;;4881592;29;20227;-77
2022/12/08 09:43:33;;;;;;;16.23;7.47;;;4.20;99.90;;;;;;4881469;29;20221;-76
2022/12/08 09:46:04;;;;;;;15.83;5.37;;;4.30;99.90;;;;;;4881485;29;20215;-77
2022/12/08 09:48:35;;;;;;;10.53;5.27;;;4.30;99.90;;;;;;4881318;29;20237;-77
2022/12/08 09:51:04;;;;;;;11.17;5.60;;;4.20;99.90;;;;;;4881261;29;20593;-77
2022/12/08 09:53:36;;;;;;;17.47;6.53;;;4.20;99.90;;;;;;4881092;29;20222;-76
2022/12/08 09:56:07;;;;;;;15.47;5.87;;;4.20;99.90;;;;;;4881618;29;20271;-77
2022/12/08 09:58:46;;;;;;;12.27;5.40;;;4.20;99.90;;;;;;4881001;29;20325;-76
2022/12/08 10:01:15;;;;;;;19.37;5.63;;;4.30;99.90;;;;;;4881220;29;20678;-76
2022/12/08 10:03:42;;;;;;;12.20;5.77;;;4.20;99.90;;;;;;4881196;29;20216;-77
2022/12/08 10:06:19;;;;;;;12.30;5.40;;;4.20;99.90;;;;;;4880947;29;20211;-77
2022/12/08 10:08:56;;;;;;;10.10;5.20;;;4.20;99.90;;;;;;4881122;29;20239;-76
2022/12/08 10:11:27;;;;;;;11.20;5.23;;;4.20;99.90;;;;;;4881433;29;20257;-77
2022/12/08 10:14:06;;;;;;;11.00;5.20;;;4.20;99.90;;;;;;4881325;29;20213;-75
2022/12/08 10:16:40;;;;;;;13.23;5.40;;;4.30;99.90;;;;;;4880820;29;20215;-77
2022/12/08 10:19:14;;;;;;;11.37;5.37;;;4.20;99.90;;;;;;4880997;29;20789;-75
2022/12/08 10:21:41;;;;;;;9.47;5.23;;;4.20;99.90;;;;;;4880932;29;20215;-76
2022/12/08 10:24:21;;;;;;;10.77;5.13;;;4.10;99.90;;;;;;4880683;29;20219;-76
2022/12/08 10:26:48;;;;;;;12.53;4.50;;;4.20;99.90;;;;;;4880628;29;20266;-77
2022/12/08 10:29:15;;;;;;;13.67;5.53;;;4.20;99.90;;;;;;4880819;29;20235;-77
2022/12/08 10:31:43;;;;;;;10.30;5.50;;;4.30;99.90;;;;;;4880519;29;20756;-77
2022/12/08 10:34:17;;;;;;;16.80;5.30;;;4.40;99.90;;;;;;4880742;29;20217;-78
2022/12/08 10:36:49;;;;;;;11.70;5.10;;;4.50;99.90;;;;;;4881174;29;20211;-77
2022/12/08 10:39:34;;;;;;;13.77;4.77;;;4.80;99.90;;;;;;4880670;29;20235;-77
2022/12/08 10:42:02;;;;;;;13.83;4.97;;;5.10;99.90;;;;;;4880928;29;20207;-77
2022/12/08 10:44:29;;;;;;;11.87;4.53;;;5.20;99.90;;;;;;4880774;29;20214;-76
2022/12/08 10:46:57;;;;;;;9.83;4.67;;;5.40;99.90;;;;;;4881220;29;20214;-75
2022/12/08 10:49:31;;;;;;;11.60;4.57;;;5.30;99.90;;;;;;4880851;29;20235;-74
2022/12/08 10:51:58;;;;;;;10.93;4.07;;;5.20;99.90;;;;;;4880598;29;20325;-76
2022/12/08 10:54:28;;;;;;;11.07;4.23;;;5.20;99.90;;;;;;4880550;29;20214;-76
2022/12/08 10:56:56;;;;;;;8.97;4.57;;;5.20;99.90;;;;;;4880940;29;20215;-77
2022/12/08 10:59:24;;;;;;;11.00;3.93;;;5.10;99.90;;;;;;4880435;29;20231;-75
2022/12/08 11:01:53;;;;;;;9.43;4.60;;;5.10;99.90;;;;;;4884834;29;20567;-76
2022/12/08 11:04:23;;;;;;;7.93;4.40;;;5.20;99.90;;;;;;4890407;29;20211;-75
2022/12/08 11:06:51;;;;;;;12.33;4.73;;;5.30;99.90;;;;;;4891643;29;20215;-76
2022/12/08 11:09:36;;;;;;;9.83;4.33;;;5.20;99.90;;;;;;4880380;29;20626;-76
2022/12/08 11:12:08;;;;;;;7.53;4.03;;;5.20;99.90;;;;;;4879721;29;20245;-77
2022/12/08 11:14:47;;;;;;;12.77;4.17;;;5.10;99.90;;;;;;4879825;29;20667;-76
2022/12/08 11:17:16;;;;;;;13.60;4.97;;;5.10;99.90;;;;;;4879815;29;20215;-77
2022/12/08 11:19:46;;;;;;;7.77;3.83;;;5.10;99.90;;;;;;4879727;29;20231;-77
2022/12/08 11:22:24;;;;;;;16.30;4.13;;;5.10;99.90;;;;;;4879615;29;20215;-74
2022/12/08 11:24:59;;;;;;;11.87;4.70;;;5.00;99.90;;;;;;4879657;29;20222;-76
2022/12/08 11:27:26;;;;;;;10.53;4.33;;;5.00;99.90;;;;;;4879795;29;20222;-76
2022/12/08 11:29:53;;;;;;;9.17;3.73;;;5.00;99.90;;;;;;4879828;29;20234;-77
2022/12/08 11:32:20;;;;;;;10.30;4.30;;;5.10;99.90;;;;;;4879780;29;20242;-77
2022/12/08 11:34:51;;;;;;;10.27;4.03;;;5.30;99.90;;;;;;4879495;29;20217;-77
2022/12/08 11:37:25;;;;;;;11.60;4.43;;;5.40;99.90;;;;;;4879386;29;20218;-76
2022/12/08 11:39:56;;;;;;;10.10;4.00;;;5.40;99.90;;;;;;4879247;29;20235;-75
2022/12/08 11:42:27;;;;;;;11.30;4.07;;;5.50;99.90;;;;;;4879551;29;20215;-75
2022/12/08 11:44:58;;;;;;;10.53;4.30;;;5.50;99.90;;;;;;4879488;29;20215;-77
2022/12/08 11:47:28;;;;;;;11.23;4.20;;;5.70;99.90;;;;;;4879426;29;20221;-77
2022/12/08 11:50:03;;;;;;;6.57;3.77;;;5.60;99.90;;;;;;4879138;29;20231;-77
2022/12/08 11:52:35;;;;;;;10.57;3.90;;;5.60;99.90;;;;;;4878662;29;20248;-76
2022/12/08 11:55:09;;;;;;;8.00;3.47;;;5.50;99.90;;;;;;4879219;29;20222;-76
2022/12/08 11:57:36;;;;;;;7.63;3.60;;;5.40;99.90;;;;;;4879446;29;20207;-73
2022/12/08 12:00:05;;;;;;;7.03;3.40;;;5.40;99.90;;;;;;4879175;29;20222;-76
2022/12/08 12:02:35;;;;;;;8.57;3.50;;;5.30;99.90;;;;;;4878711;29;20211;-76
2022/12/08 12:05:07;;;;;;;6.63;2.80;;;5.40;99.90;;;;;;4879362;29;20215;-74
2022/12/08 12:07:54;;;;;;;4.70;2.87;;;5.60;99.90;;;;;;4879105;29;20214;-76
2022/12/08 12:10:32;;;;;;;10.77;3.47;;;5.50;99.90;;;;;;4879534;29;20211;-76
2022/12/08 12:13:13;;;;;;;8.30;3.23;;;5.50;99.90;;;;;;4878780;29;20245;-76
2022/12/08 12:16:12;;;;;;;6.50;2.87;;;5.50;99.90;;;;;;4879550;29;20210;-76
2022/12/08 12:18:45;;;;;;;7.73;3.20;;;5.50;99.90;;;;;;4879272;29;20325;-76
2022/12/08 12:21:18;;;;;;;7.03;3.10;;;5.60;99.90;;;;;;4881046;29;20211;-74
2022/12/08 12:23:49;;;;;;;5.03;2.57;;;5.70;99.90;;;;;;4883684;29;20214;-74
2022/12/08 12:26:22;;;;;;;8.17;2.93;;;5.80;99.90;;;;;;4883792;29;20211;-76
2022/12/08 12:28:53;;;;;;;6.07;2.73;;;5.70;99.90;;;;;;4882984;29;20231;-77
2022/12/08 12:31:24;;;;;;;9.07;3.17;;;5.90;99.90;;;;;;4882936;29;20354;-76
2022/12/08 12:33:53;;;;;;;8.90;3.50;;;6.00;99.90;;;;;;4882903;29;20215;-77
2022/12/08 12:36:22;;;;;;;8.23;3.90;;;6.00;99.90;;;;;;4882961;29;20580;-76
2022/12/08 12:39:02;;;;;;;7.83;3.73;;;6.00;99.90;;;;;;4882490;29;20701;-76
2022/12/08 12:41:35;;;;;;;7.13;3.20;;;6.20;99.90;;;;;;4882853;29;20251;-75
2022/12/08 12:44:24;;;;;;;7.53;3.00;;;6.40;99.90;;;;;;4882638;29;20230;-76
2022/12/08 12:46:57;;;;;;;5.20;3.27;;;6.40;99.90;;;;;;4882790;29;20217;-77
2022/12/08 12:49:53;;;;;;;6.23;3.37;;;6.30;99.90;;;;;;4882763;29;20237;-77
2022/12/08 12:52:44;;;;;;;9.90;3.43;;;6.50;99.90;;;;;;4882210;29;20598;-76
2022/12/08 12:55:50;;;;;;;10.93;3.70;;;6.60;99.90;;;;;;4884821;29;20208;-79
2022/12/08 12:58:49;;;;;;;9.80;3.43;;;6.70;99.90;;;;;;4882480;29;20740;-77
2022/12/08 13:01:50;;;;;;;9.80;3.03;;;6.70;99.90;;;;;;4882293;29;20215;-76
2022/12/08 13:04:18;;;;;;;11.03;3.37;;;6.70;99.90;;;;;;4882266;29;20214;-74
2022/12/08 13:06:48;;;;;;;10.83;3.13;;;6.60;99.90;;;;;;4881943;29;20682;-74
2022/12/08 13:09:28;;;;;;;7.17;3.90;;;6.50;99.90;;;;;;4881774;29;20706;-73
2022/12/08 13:11:58;;;;;;;6.97;3.40;;;6.50;99.90;;;;;;4882127;29;20710;-74
2022/12/08 13:14:36;;;;;;;9.70;3.20;;;6.60;99.90;;;;;;4881994;29;20229;-73
2022/12/08 13:17:10;;;;;;;5.40;3.27;;;6.60;99.90;;;;;;4881905;29;20246;-74
2022/12/08 13:19:39;;;;;;;8.00;2.60;;;6.60;99.90;;;;;;4881736;29;20231;-77
2022/12/08 13:22:39;;;;;;;10.33;3.50;;;6.70;99.90;;;;;;4881640;29;20211;-77
2022/12/08 13:25:58;;;;;;;5.17;2.70;;;6.60;99.90;;;;;;4881686;29;20675;-77
2022/12/08 13:28:28;;;;;;;8.03;2.90;;;6.40;99.90;;;;;;4881760;29;20243;-77
2022/12/08 13:30:57;;;;;;;7.13;2.80;;;6.50;99.90;;;;;;4881730;29;20221;-77
2022/12/08 13:33:28;;;;;;;7.53;3.17;;;6.50;99.90;;;;;;4880901;29;20245;-77
2022/12/08 13:36:04;;;;;;;7.80;2.90;;;6.50;99.90;;;;;;4881545;29;20548;-77
2022/12/08 13:38:34;;;;;;;6.07;3.13;;;6.40;99.90;;;;;;4881410;29;20227;-77
2022/12/08 13:41:04;;;;;;;6.27;2.47;;;6.30;99.90;;;;;;4881650;29;20682;-78
2022/12/08 13:43:40;;;;;;;9.07;3.40;;;6.20;99.90;;;;;;4876647;29;20221;-79
2022/12/08 13:46:09;;;;;;;6.77;2.90;;;6.20;99.90;;;;;;4879665;29;20210;-79
2022/12/08 13:48:45;;;;;;;6.80;3.13;;;6.20;99.90;;;;;;4880662;29;20229;-77
2022/12/08 13:51:16;;;;;;;5.00;2.63;;;6.30;99.90;;;;;;4873998;29;20210;-80
2022/12/08 13:53:53;;;;;;;5.67;2.87;;;6.20;99.90;;;;;;4872804;29;20223;-77
2022/12/08 13:56:21;;;;;;;7.93;3.50;;;6.10;99.90;;;;;;4879777;29;20331;-75
2022/12/08 13:58:49;;;;;;;5.97;2.47;;;6.10;99.90;;;;;;4879441;29;20235;-71
2022/12/08 14:01:19;;;;;;;6.23;3.07;;;6.20;99.90;;;;;;4879421;29;20209;-70
2022/12/08 14:03:49;;;;;;;11.67;2.93;;;6.20;99.90;;;;;;4879979;29;20211;-72
2022/12/08 14:06:18;;;;;;;6.30;3.07;;;6.40;99.90;;;;;;4879040;29;20309;-70
2022/12/08 14:08:51;;;;;;;8.53;2.80;;;6.40;99.90;;;;;;4879195;29;20231;-71
2022/12/08 14:11:33;;;;;;;9.90;3.70;;;6.40;99.90;;;;;;4879241;29;20214;-69
2022/12/08 14:14:04;;;;;;;6.13;2.60;;;6.40;99.90;;;;;;4878601;29;20675;-71
2022/12/08 14:16:37;;;;;;;6.20;2.83;;;6.30;99.90;;;;;;4879533;29;20221;-74
2022/12/08 14:19:15;;;;;;;5.83;2.80;;;6.10;99.90;;;;;;4878505;29;20728;-71
2022/12/08 14:21:45;;;;;;;7.67;2.77;;;6.00;99.90;;;;;;4878854;29;20218;-72
2022/12/08 14:24:12;;;;;;;9.93;3.10;;;6.10;99.90;;;;;;4879133;29;20219;-71
2022/12/08 14:26:39;;;;;;;8.47;3.80;;;6.10;99.90;;;;;;4880000;29;20227;-72
2022/12/08 14:29:08;;;;;;;6.40;2.87;;;6.10;99.90;;;;;;4878926;29;20238;-71
2022/12/08 14:31:35;;;;;;;5.33;2.80;;;6.00;99.90;;;;;;4879060;29;20207;-73
2022/12/08 14:34:02;;;;;;;8.20;3.07;;;6.00;99.90;;;;;;4878837;29;20667;-70
2022/12/08 14:36:32;;;;;;;5.13;2.33;;;6.00;99.90;;;;;;4878614;29;20215;-72
2022/12/08 14:38:59;;;;;;;5.20;1.80;;;6.10;99.90;;;;;;4878618;29;20773;-70
2022/12/08 14:41:31;;;;;;;5.87;1.57;;;6.20;99.90;;;;;;4878437;29;20207;-72
2022/12/08 14:43:59;;;;;;;2.23;1.03;;;6.20;99.90;;;;;;4877333;29;20218;-70
2022/12/08 14:46:28;;;;;;;1.57;1.10;;;6.40;99.90;;;;;;4878875;29;20215;-69
2022/12/08 14:48:56;;;;;;;4.90;0.83;;;6.40;99.90;;;;;;4898580;23;20238;-74
2022/12/08 14:51:29;;;;;;;3.37;1.00;;;6.40;99.90;;;;;;4886731;29;20665;-72
2022/12/08 14:53:58;;;;;;;4.37;1.10;;;6.40;99.90;;;;;;4890638;29;20686;-73
2022/12/08 14:56:31;;;;;;;3.63;1.03;;;6.40;99.90;;;;;;4897300;29;20207;-73
2022/12/08 14:59:07;;;;;;;1.57;1.10;;;6.20;99.90;;;;;;4897492;29;20230;-73
2022/12/08 15:01:36;;;;;;;2.30;1.10;;;6.10;99.90;;;;;;4897205;29;20209;-75
2022/12/08 15:04:08;;;;;;;3.70;1.07;;;6.20;99.90;;;;;;4898364;29;20265;-71
2022/12/08 15:06:36;;;;;;;2.50;1.00;;;6.30;99.90;;;;;;4898747;29;20211;-72
2022/12/08 15:09:16;;;;;;;2.63;1.20;;;6.30;99.90;;;;;;4898438;29;20324;-77
2022/12/08 15:11:43;;;;;;;2.80;1.33;;;6.30;99.90;;;;;;4898289;29;20217;-76
2022/12/08 15:14:27;;;;;;;2.93;1.50;;;6.30;99.90;;;;;;4898426;29;20222;-80
2022/12/08 15:16:55;;;;;;;1.70;1.30;;;6.30;99.90;;;;;;4886548;29;20219;-75
2022/12/08 15:19:27;;;;;;;2.10;1.30;;;6.30;99.90;;;;;;4880305;29;20235;-76
2022/12/08 15:21:55;;;;;;;8.07;1.40;;;6.20;99.90;;;;;;4879483;29;20215;-78
2022/12/08 15:24:25;;;;;;;2.60;1.50;;;6.10;99.90;;;;;;4879533;29;20211;-75
2022/12/08 15:26:52;;;;;;;2.17;1.40;;;6.00;99.90;;;;;;4879583;29;20574;-74
2022/12/08 15:29:21;;;;;;;1.70;1.20;;;6.00;99.90;;;;;;4879779;29;20235;-74
2022/12/08 15:31:48;;;;;;;3.17;1.73;;;5.90;99.90;;;;;;4879579;29;20221;-72
2022/12/08 15:34:16;;;;;;;3.93;2.33;;;5.90;99.90;;;;;;4879445;29;20679;-72
2022/12/08 15:36:44;;;;;;;2.60;1.90;;;5.90;99.90;;;;;;4879243;29;20207;-74
2022/12/08 15:39:31;;;;;;;3.93;1.80;;;5.90;99.90;;;;;;4879136;29;20238;-73
2022/12/08 15:41:59;;;;;;;4.67;1.67;;;5.90;99.90;;;;;;4879139;29;20211;-75
2022/12/08 15:44:26;;;;;;;2.17;1.70;;;5.90;99.90;;;;;;4878790;29;20267;-73
2022/12/08 15:46:53;;;;;;;2.50;1.80;;;5.80;99.90;;;;;;4880848;29;20286;-75
2022/12/08 15:49:23;;;;;;;2.90;2.07;;;5.70;99.90;;;;;;4879153;29;20243;-73
2022/12/08 15:51:51;;;;;;;3.07;1.77;;;5.60;99.90;;;;;;4892791;29;20210;-74
2022/12/08 15:54:18;;;;;;;4.13;2.00;;;5.40;99.90;;;;;;4897706;29;20217;-73
2022/12/08 15:56:47;;;;;;;6.67;2.23;;;5.50;99.90;;;;;;4897825;29;20308;-73
2022/12/08 15:59:17;;;;;;;3.77;2.27;;;5.60;99.90;;;;;;4897984;29;20234;-76
2022/12/08 16:01:45;;;;;;;6.93;2.80;;;5.60;99.90;;;;;;4897600;29;20840;-74
2022/12/08 16:04:14;;;;;;;5.43;3.10;;;5.50;99.90;;;;;;4897700;29;20214;-75
2022/12/08 16:06:45;;;;;;;4.83;2.77;;;5.60;99.90;;;;;;4897319;29;20214;-74
2022/12/08 16:09:17;;;;;;;6.17;3.13;;;5.60;99.90;;;;;;4897140;29;20226;-75
2022/12/08 16:14:29;;;;;;;5.20;3.13;;;5.40;99.90;;;;;;4879147;29;20211;-75
2022/12/08 16:16:56;;;;;;;8.97;3.03;;;5.60;99.90;;;;;;4878914;29;20211;-74
2022/12/08 16:19:23;;;;;;;11.30;3.80;;;5.60;99.90;;;;;;4879013;29;20341;-75
2022/12/08 16:21:51;;;;;;;10.87;3.83;;;5.60;99.90;;;;;;4878675;29;20211;-74
2022/12/08 16:24:18;;;;;;;5.63;3.13;;;5.60;99.90;;;;;;4878793;29;20203;-74
2022/12/08 16:26:45;;;;;;;5.13;2.93;;;5.50;99.90;;;;;;4878860;29;20207;-75
2022/12/08 16:29:18;;;;;;;8.07;2.90;;;5.50;99.90;;;;;;4878497;29;20235;-74
2022/12/08 16:31:44;;;;;;;7.70;3.10;;;5.50;99.90;;;;;;4878611;29;20688;-74
2022/12/08 16:34:11;;;;;;;5.03;2.87;;;5.40;99.90;;;;;;4879019;29;20242;-74
2022/12/08 16:36:38;;;;;;;6.07;3.23;;;5.20;99.90;;;;;;4878758;29;20237;-74
2022/12/08 16:39:07;;;;;;;6.03;3.20;;;4.90;99.90;;;;;;4878531;29;20233;-74
2022/12/08 16:44:18;;;;;;;10.23;3.97;;;4.70;99.90;;;;;;4878334;29;20215;-75
2022/12/08 16:46:45;;;;;;;8.37;3.53;;;4.60;99.90;;;;;;4892823;29;20206;-74
2022/12/08 16:49:14;;;;;;;7.50;3.97;;;4.60;99.90;;;;;;4896778;29;20260;-74
2022/12/08 16:51:42;;;;;;;7.63;4.07;;;4.50;99.90;;;;;;4884463;29;20226;-74
2022/12/08 16:54:10;;;;;;;10.20;4.17;;;4.50;99.90;;;;;;4877865;29;20239;-74
2022/12/08 16:56:37;;;;;;;8.00;4.20;;;4.50;99.90;;;;;;4878374;29;20215;-74
2022/12/08 16:59:04;;;;;;;10.43;3.90;;;4.50;99.90;;;;;;4878590;29;20233;-74
2022/12/08 17:01:31;;;;;;;8.30;4.80;;;4.40;99.90;;;;;;4878343;29;20224;-74
2022/12/08 17:03:58;;;;;;;8.87;4.00;;;4.40;99.90;;;;;;4878547;29;20222;-71
2022/12/08 17:06:25;;;;;;;13.67;4.63;;;4.40;99.90;;;;;;4878246;29;20208;-75
2022/12/08 17:08:51;;;;;;;8.93;4.93;;;4.40;99.90;;;;;;4880900;29;20238;-73
2022/12/08 17:11:25;;;;;;;10.40;5.30;;;4.30;99.90;;;;;;4881755;29;20211;-74
2022/12/08 17:13:52;;;;;;;7.57;4.73;;;4.30;99.90;;;;;;4881983;29;20235;-74
2022/12/08 17:16:19;;;;;;;11.63;4.33;;;4.30;99.90;;;;;;4880945;29;20589;-76
2022/12/08 17:18:46;;;;;;;10.53;4.40;;;4.20;99.90;;;;;;4881972;29;20235;-74
2022/12/08 17:21:15;;;;;;;5.40;3.77;;;4.30;99.90;;;;;;4890341;29;20206;-74
2022/12/08 17:23:42;;;;;;;6.80;4.17;;;4.30;99.90;;;;;;4900098;29;20245;-74
2022/12/08 17:26:10;;;;;;;10.40;4.57;;;4.30;99.90;;;;;;4900533;29;20237;-74
2022/12/08 17:28:39;;;;;;;6.97;4.20;;;4.30;99.90;;;;;;4900296;29;20233;-74
2022/12/08 17:31:10;;;;;;;6.87;4.10;;;4.30;99.90;;;;;;4891796;29;20213;-74
2022/12/08 17:33:37;;;;;;;8.07;4.30;;;4.40;99.90;;;;;;4881208;29;20249;-73
2022/12/08 17:36:04;;;;;;;9.03;5.00;;;4.50;99.90;;;;;;4880746;29;20222;-74
2022/12/08 17:38:31;;;;;;;8.37;4.87;;;4.40;99.90;;;;;;4880428;29;20231;-74
2022/12/08 17:41:02;;;;;;;9.80;5.00;;;4.30;99.90;;;;;;4886225;29;20593;-74
2022/12/08 17:43:29;;;;;;;8.30;4.23;;;4.30;99.90;;;;;;4884865;29;20215;-74
2022/12/08 17:45:58;;;;;;;7.80;4.20;;;4.40;99.90;;;;;;4880534;29;20207;-74
2022/12/08 17:48:24;;;;;;;9.30;4.77;;;4.40;99.90;;;;;;4880953;29;20248;-74
2022/12/08 17:50:52;;;;;;;9.20;4.77;;;4.30;99.90;;;;;;4880944;29;20204;-74
2022/12/08 17:53:19;;;;;;;14.43;4.80;;;4.30;99.90;;;;;;4881093;29;20239;-74
2022/12/08 17:55:53;;;;;;;9.80;4.50;;;4.20;99.90;;;;;;4881129;29;20217;-74
2022/12/08 17:58:20;;;;;;;8.03;4.77;;;4.10;99.90;;;;;;4880637;29;20234;-73
2022/12/08 18:00:47;;;;;;;8.83;4.33;;;4.10;99.90;;;;;;4880664;29;20218;-73
2022/12/08 18:03:15;;;;;;;12.40;4.73;;;4.10;99.90;;;;;;4879959;29;20215;-74
2022/12/08 18:05:42;;;;;;;9.10;4.90;;;4.10;99.90;;;;;;4880552;29;20693;-74
2022/12/08 18:08:09;;;;;;;9.17;4.80;;;4.10;99.90;;;;;;4880210;29;20253;-74
2022/12/08 18:10:37;;;;;;;9.67;4.87;;;4.10;99.90;;;;;;4880355;29;20701;-74
2022/12/08 18:13:03;;;;;;;10.20;4.73;;;4.00;99.90;;;;;;4880470;29;20235;-74
2022/12/08 18:15:31;;;;;;;8.47;5.03;;;4.00;99.90;;;;;;4880597;29;20551;-74
2022/12/08 18:17:57;;;;;;;7.30;5.00;;;3.90;99.90;;;;;;4880639;29;20221;-74
2022/12/08 18:20:26;;;;;;;9.23;4.90;;;3.70;99.90;;;;;;4880872;29;20217;-74
2022/12/08 18:22:53;;;;;;;8.80;5.50;;;3.60;99.90;;;;;;4880764;29;20226;-74
2022/12/08 18:25:20;;;;;;;8.67;5.13;;;3.60;99.90;;;;;;4880726;29;20215;-74
2022/12/08 18:27:47;;;;;;;7.53;4.83;;;3.60;99.90;;;;;;4880590;29;20610;-74
2022/12/08 18:30:16;;;;;;;13.10;5.33;;;3.60;99.90;;;;;;4880088;29;20238;-74
2022/12/08 18:32:43;;;;;;;8.77;5.03;;;3.50;99.90;;;;;;4880031;29;20211;-74
2022/12/08 18:35:10;;;;;;;9.23;5.23;;;3.50;99.90;;;;;;4880523;29;20214;-74
2022/12/08 18:37:39;;;;;;;8.67;5.67;;;3.50;99.90;;;;;;4880082;29;20222;-74
2022/12/08 18:40:07;;;;;;;8.57;5.20;;;3.50;99.90;;;;;;4880360;29;20653;-74
2022/12/08 18:42:34;;;;;;;16.17;6.00;;;3.50;99.90;;;;;;4880030;29;20211;-74
2022/12/08 18:45:03;;;;;;;9.47;5.60;;;3.40;99.90;;;;;;4879843;29;20214;-74
2022/12/08 18:47:30;;;;;;;15.13;6.73;;;3.40;99.90;;;;;;4880328;29;20263;-75
2022/12/08 18:49:57;;;;;;;12.67;7.13;;;3.30;99.90;;;;;;4880113;29;20326;-74
2022/12/08 18:52:24;;;;;;;14.47;6.63;;;3.30;99.90;;;;;;4880287;29;20215;-74
2022/12/08 18:54:52;;;;;;;16.23;6.20;;;3.30;99.90;;;;;;4880174;29;20698;-74
2022/12/08 18:57:19;;;;;;;11.37;5.87;;;3.20;99.90;;;;;;4880066;29;20223;-74
2022/12/08 18:59:46;;;;;;;10.93;5.97;;;3.10;99.90;;;;;;4880228;29;20324;-75
2022/12/08 19:02:13;;;;;;;16.53;7.00;;;3.10;99.90;;;;;;4880164;29;20215;-74
2022/12/08 19:04:40;;;;;;;12.00;6.57;;;3.10;99.90;;;;;;4879961;29;20684;-74
2022/12/08 19:07:08;;;;;;;13.97;6.93;;;3.00;99.90;;;;;;4879788;29;20681;-73
2022/12/08 19:09:34;;;;;;;11.80;6.63;;;3.00;99.90;;;;;;4879501;29;20235;-74
2022/12/08 19:12:03;;;;;;;14.53;7.17;;;2.90;99.90;;;;;;4879752;29;20217;-74
2022/12/08 19:14:30;;;;;;;17.77;7.17;;;2.90;99.90;;;;;;4879559;29;20238;-74
2022/12/08 19:16:57;;;;;;;20.43;7.97;;;2.90;99.90;;;;;;4879770;29;20226;-74
2022/12/08 19:19:24;;;;;;;14.03;8.23;;;3.00;99.90;;;;;;4879428;29;20238;-74
2022/12/08 19:21:51;;;;;;;17.53;7.80;;;3.00;99.90;;;;;;4879772;29;20211;-74
2022/12/08 19:24:18;;;;;;;12.47;7.00;;;2.90;99.90;;;;;;4879215;29;20212;-74
2022/12/08 19:26:45;;;;;;;12.53;7.10;;;2.90;99.90;;;;;;4879120;29;20207;-74
2022/12/08 19:29:13;;;;;;;13.90;6.93;;;2.90;99.90;;;;;;4879253;29;20259;-74
2022/12/08 19:31:40;;;;;;;12.80;6.73;;;2.90;99.90;;;;;;4879036;29;20293;-74
2022/12/08 19:34:08;;;;;;;11.33;6.80;;;2.80;99.90;;;;;;4878879;29;20249;-74
2022/12/08 19:36:40;;;;;;;16.53;6.23;;;2.70;99.90;;;;;;4878302;29;20214;-73
2022/12/08 19:44:53;;;;;;;16.03;6.07;;;2.80;99.90;;;;;;4879847;29;20222;-74
2022/12/08 19:47:20;;;;;;;13.07;5.63;;;2.80;99.90;;;;;;4882384;29;20356;-74
2022/12/08 19:49:47;;;;;;;14.90;5.73;;;2.70;99.90;;;;;;4880412;29;20241;-75
2022/12/08 19:52:14;;;;;;;11.63;6.17;;;2.70;99.90;;;;;;4881403;29;20263;-73
2022/12/08 19:54:41;;;;;;;13.07;6.20;;;2.80;99.90;;;;;;4883885;29;20257;-74
2022/12/08 19:57:08;;;;;;;10.33;6.13;;;3.00;99.90;;;;;;4879861;29;20204;-74
2022/12/08 19:59:36;;;;;;;11.23;6.60;;;3.10;99.90;;;;;;4877718;29;20594;-73
2022/12/08 20:02:03;;;;;;;13.80;7.43;;;3.10;99.90;;;;;;4880807;29;20233;-74
2022/12/08 20:04:30;;;;;;;13.23;6.53;;;3.10;99.90;;;;;;4878648;29;20211;-74
2022/12/08 20:06:58;;;;;;;13.87;7.07;;;3.20;99.90;;;;;;4883608;29;20224;-74
2022/12/08 20:09:25;;;;;;;12.47;7.00;;;3.20;99.90;;;;;;4878145;29;20237;-74
2022/12/08 20:11:53;;;;;;;11.43;6.07;;;3.20;99.90;;;;;;4878494;29;20215;-74
2022/12/08 20:14:20;;;;;;;12.87;6.63;;;3.20;99.90;;;;;;4878047;29;20285;-74
2022/12/08 20:16:48;;;;;;;14.80;7.70;;;3.20;99.90;;;;;;4878484;29;20571;-74
2022/12/08 20:19:15;;;;;;;17.43;7.53;;;3.20;99.90;;;;;;4878440;29;20586;-74
2022/12/08 20:21:42;;;;;;;17.40;7.57;;;3.30;99.90;;;;;;4878832;29;20219;-74
2022/12/08 20:24:08;;;;;;;12.60;6.50;;;3.40;99.90;;;;;;4878370;29;20685;-74
2022/12/08 20:26:35;;;;;;;11.83;6.70;;;3.50;99.90;;;;;;4878272;29;20207;-74
2022/12/08 20:29:02;;;;;;;13.13;6.43;;;3.50;99.90;;;;;;4877703;29;20742;-74
2022/12/08 20:31:30;;;;;;;8.97;5.80;;;3.40;99.90;;;;;;4878624;29;20211;-74
2022/12/08 20:33:58;;;;;;;11.20;5.77;;;3.30;99.90;;;;;;4878125;29;20234;-74
2022/12/08 20:36:25;;;;;;;13.73;6.07;;;3.40;99.90;;;;;;4878613;29;20211;-74
2022/12/08 20:38:53;;;;;;;10.33;5.97;;;3.50;99.90;;;;;;4878301;29;20279;-74
2022/12/08 20:41:22;;;;;;;10.93;5.20;;;3.50;99.90;;;;;;4878569;29;20617;-74
2022/12/08 20:43:50;;;;;;;9.87;5.70;;;3.50;99.90;;;;;;4881233;29;20207;-74
2022/12/08 20:46:18;;;;;;;12.57;5.83;;;3.40;99.90;;;;;;4881601;29;20211;-74
2022/12/08 20:48:45;;;;;;;12.17;6.13;;;3.40;99.90;;;;;;4881679;29;20231;-73
2022/12/08 20:51:14;;;;;;;12.30;5.53;;;3.30;99.90;;;;;;4882039;29;20544;-74
2022/12/08 20:53:41;;;;;;;12.57;6.13;;;3.30;99.90;;;;;;4881683;29;20241;-74
2022/12/08 20:56:08;;;;;;;12.20;5.47;;;3.30;99.90;;;;;;4881669;29;20211;-74
2022/12/08 20:58:35;;;;;;;9.97;4.97;;;3.20;99.90;;;;;;4881822;29;20230;-74
2022/12/08 21:01:07;;;;;;;11.63;6.40;;;3.10;99.90;;;;;;4881883;29;20302;-74
2022/12/08 21:03:34;;;;;;;13.60;5.10;;;3.10;99.90;;;;;;4881785;29;20556;-73
2022/12/08 21:06:01;;;;;;;12.10;5.43;;;3.10;99.90;;;;;;4881591;29;20567;-74
2022/12/08 21:08:29;;;;;;;10.77;5.47;;;3.20;99.90;;;;;;4881310;29;20226;-74
2022/12/08 21:10:56;;;;;;;14.77;5.60;;;3.00;99.90;;;;;;4883134;29;20297;-74
2022/12/08 21:13:23;;;;;;;14.90;5.23;;;3.00;99.90;;;;;;4881137;29;20219;-74
2022/12/08 21:15:50;;;;;;;13.30;5.37;;;3.00;99.90;;;;;;4881229;29;20215;-73
2022/12/08 21:18:17;;;;;;;14.77;5.73;;;3.10;99.90;;;;;;4881626;29;20609;-74
2022/12/08 21:20:44;;;;;;;11.60;5.20;;;3.00;99.90;;;;;;4881483;29;20207;-73
2022/12/08 21:23:11;;;;;;;10.77;5.07;;;3.10;99.90;;;;;;4880962;29;20213;-74
2022/12/08 21:25:41;;;;;;;9.87;5.13;;;3.00;99.90;;;;;;4881212;29;20223;-74
2022/12/08 21:28:08;;;;;;;10.60;5.13;;;3.00;99.90;;;;;;4881371;29;20231;-73
2022/12/08 21:30:35;;;;;;;14.23;6.20;;;3.00;99.90;;;;;;4881286;29;20211;-74
2022/12/08 21:33:02;;;;;;;9.37;5.67;;;2.90;99.90;;;;;;4881548;29;20593;-73
2022/12/08 21:35:29;;;;;;;12.20;5.33;;;3.00;99.90;;;;;;4880823;29;20235;-73
2022/12/08 21:37:55;;;;;;;15.53;5.73;;;2.80;99.90;;;;;;4881068;29;20556;-73
2022/12/08 21:40:22;;;;;;;14.90;5.93;;;2.80;99.90;;;;;;4881097;29;20264;-74
2022/12/08 21:42:51;;;;;;;10.83;5.37;;;2.70;99.90;;;;;;4881061;29;20218;-74
2022/12/08 21:45:20;;;;;;;11.47;5.60;;;2.70;99.90;;;;;;4880918;29;20620;-73
2022/12/08 21:47:48;;;;;;;9.60;5.60;;;2.70;99.90;;;;;;4880983;29;20210;-74
2022/12/08 21:50:15;;;;;;;9.83;4.90;;;2.60;99.90;;;;;;4880901;29;20564;-73
2022/12/08 21:52:44;;;;;;;12.20;5.17;;;2.60;99.90;;;;;;4880505;29;20559;-73
2022/12/08 21:55:12;;;;;;;9.30;5.00;;;2.60;99.90;;;;;;4880247;29;20239;-74
2022/12/08 21:57:39;;;;;;;12.23;5.63;;;2.50;99.90;;;;;;4880845;29;20211;-73
2022/12/08 22:00:13;;;;;;;8.67;4.50;;;2.50;99.90;;;;;;4876960;29;20218;-76
